sensor_id;sensor_type;location;lat;lon;timestamp;pressure;altitude;pressure_sealevel;temperature;humidity
58668;BME280;59852;43.086;25.634;2023-04-03T00:00:03;98266.63;;;8.91;68.42
58668;BME280;59852;43.086;25.634;2023-04-03T00:02:28;98274.22;;;8.94;67.11
58668;BME280;59852;43.086;25.634;2023-04-03T00:04:53;98261.34;;;9.04;66.74
58668;BME280;59852;43.086;25.634;2023-04-03T00:07:19;98260.44;;;9.05;66.19
58668;BME280;59852;43.086;25.634;2023-04-03T00:09:44;98253.78;;;9.12;66.02
58668;BME280;59852;43.086;25.634;2023-04-03T00:12:10;98251.75;;;9.04;65.92
58668;BME280;59852;43.086;25.634;2023-04-03T00:14:35;98247.00;;;8.98;66.54
58668;BME280;59852;43.086;25.634;2023-04-03T00:17:01;98250.06;;;9.03;67.40
58668;BME280;59852;43.086;25.634;2023-04-03T00:19:26;98250.16;;;8.90;67.17
58668;BME280;59852;43.086;25.634;2023-04-03T00:21:51;98239.72;;;8.90;67.22
58668;BME280;59852;43.086;25.634;2023-04-03T00:24:18;98238.44;;;8.96;66.85
58668;BME280;59852;43.086;25.634;2023-04-03T00:26:44;98239.94;;;8.87;67.41
58668;BME280;59852;43.086;25.634;2023-04-03T00:29:09;98247.97;;;8.84;66.96
58668;BME280;59852;43.086;25.634;2023-04-03T00:31:34;98246.03;;;8.99;66.39
58668;BME280;59852;43.086;25.634;2023-04-03T00:34:00;98243.16;;;8.91;66.51
58668;BME280;59852;43.086;25.634;2023-04-03T00:36:26;98238.34;;;8.98;66.20
58668;BME280;59852;43.086;25.634;2023-04-03T00:38:51;98241.25;;;8.93;66.75
58668;BME280;59852;43.086;25.634;2023-04-03T00:41:16;98237.88;;;9.04;66.13
58668;BME280;59852;43.086;25.634;2023-04-03T00:43:42;98239.47;;;8.94;66.63
58668;BME280;59852;43.086;25.634;2023-04-03T00:46:07;98237.28;;;8.76;67.40
58668;BME280;59852;43.086;25.634;2023-04-03T00:51:01;98231.06;;;8.90;66.44
58668;BME280;59852;43.086;25.634;2023-04-03T00:53:29;98230.38;;;8.99;66.41
58668;BME280;59852;43.086;25.634;2023-04-03T00:55:56;98231.16;;;9.12;65.85
58668;BME280;59852;43.086;25.634;2023-04-03T00:58:23;98239.25;;;8.23;69.01
58668;BME280;59852;43.086;25.634;2023-04-03T01:00:52;98235.47;;;8.53;69.25
58668;BME280;59852;43.086;25.634;2023-04-03T01:03:21;98231.59;;;8.82;69.26
58668;BME280;59852;43.086;25.634;2023-04-03T01:05:46;98239.78;;;8.78;67.64
58668;BME280;59852;43.086;25.634;2023-04-03T01:08:12;98229.94;;;8.81;67.53
58668;BME280;59852;43.086;25.634;2023-04-03T01:10:37;98236.63;;;8.85;67.72
58668;BME280;59852;43.086;25.634;2023-04-03T01:13:08;98241.56;;;8.77;67.68
58668;BME280;59852;43.086;25.634;2023-04-03T01:15:42;98245.00;;;8.65;67.71
58668;BME280;59852;43.086;25.634;2023-04-03T01:18:09;98241.16;;;8.71;67.74
58668;BME280;59852;43.086;25.634;2023-04-03T01:20:39;98242.81;;;8.72;67.76
58668;BME280;59852;43.086;25.634;2023-04-03T01:25:34;98245.88;;;8.66;67.67
58668;BME280;59852;43.086;25.634;2023-04-03T01:28:01;98246.47;;;8.69;67.96
58668;BME280;59852;43.086;25.634;2023-04-03T01:30:36;98249.50;;;8.63;67.38
58668;BME280;59852;43.086;25.634;2023-04-03T01:33:04;98257.97;;;8.54;67.74
58668;BME280;59852;43.086;25.634;2023-04-03T01:35:30;98256.38;;;8.64;67.83
58668;BME280;59852;43.086;25.634;2023-04-03T01:37:55;98266.44;;;8.57;67.49
58668;BME280;59852;43.086;25.634;2023-04-03T01:40:20;98265.25;;;8.61;67.71
58668;BME280;59852;43.086;25.634;2023-04-03T01:42:46;98264.66;;;8.32;68.65
58668;BME280;59852;43.086;25.634;2023-04-03T01:45:11;98266.44;;;8.45;68.62
58668;BME280;59852;43.086;25.634;2023-04-03T01:47:36;98265.53;;;8.20;69.26
58668;BME280;59852;43.086;25.634;2023-04-03T01:50:02;98257.50;;;8.23;69.16
58668;BME280;59852;43.086;25.634;2023-04-03T01:52:27;98259.16;;;8.24;69.35
58668;BME280;59852;43.086;25.634;2023-04-03T01:54:53;98260.31;;;8.20;69.62
58668;BME280;59852;43.086;25.634;2023-04-03T01:57:18;98259.50;;;8.20;69.46
58668;BME280;59852;43.086;25.634;2023-04-03T01:59:43;98274.06;;;8.22;69.20
58668;BME280;59852;43.086;25.634;2023-04-03T02:02:09;98273.53;;;8.30;69.23
58668;BME280;59852;43.086;25.634;2023-04-03T02:04:34;98272.72;;;8.17;69.77
58668;BME280;59852;43.086;25.634;2023-04-03T02:06:59;98273.84;;;8.25;69.07
58668;BME280;59852;43.086;25.634;2023-04-03T02:09:25;98270.41;;;8.25;69.76
58668;BME280;59852;43.086;25.634;2023-04-03T02:11:52;98279.09;;;8.00;70.27
58668;BME280;59852;43.086;25.634;2023-04-03T02:14:17;98274.78;;;7.86;70.25
58668;BME280;59852;43.086;25.634;2023-04-03T02:16:42;98283.88;;;7.93;70.71
58668;BME280;59852;43.086;25.634;2023-04-03T02:19:08;98280.13;;;7.85;70.80
58668;BME280;59852;43.086;25.634;2023-04-03T02:21:33;98278.34;;;7.72;71.33
58668;BME280;59852;43.086;25.634;2023-04-03T02:23:59;98270.44;;;7.74;70.94
58668;BME280;59852;43.086;25.634;2023-04-03T02:26:24;98268.75;;;7.86;71.40
58668;BME280;59852;43.086;25.634;2023-04-03T02:28:50;98264.19;;;7.89;70.81
58668;BME280;59852;43.086;25.634;2023-04-03T02:31:16;98268.56;;;7.89;70.97
58668;BME280;59852;43.086;25.634;2023-04-03T02:33:41;98269.06;;;7.94;70.54
58668;BME280;59852;43.086;25.634;2023-04-03T02:36:06;98269.06;;;7.94;70.19
58668;BME280;59852;43.086;25.634;2023-04-03T02:38:32;98270.66;;;7.96;70.49
58668;BME280;59852;43.086;25.634;2023-04-03T02:41:05;98270.75;;;7.82;71.43
58668;BME280;59852;43.086;25.634;2023-04-03T02:43:30;98269.47;;;7.50;72.58
58668;BME280;59852;43.086;25.634;2023-04-03T02:45:56;98265.09;;;7.63;72.88
58668;BME280;59852;43.086;25.634;2023-04-03T02:48:21;98267.31;;;7.82;71.77
58668;BME280;59852;43.086;25.634;2023-04-03T02:50:47;98259.50;;;7.69;72.08
58668;BME280;59852;43.086;25.634;2023-04-03T02:53:12;98273.13;;;7.72;71.38
58668;BME280;59852;43.086;25.634;2023-04-03T02:55:38;98269.03;;;7.43;73.39
58668;BME280;59852;43.086;25.634;2023-04-03T02:58:03;98271.06;;;7.78;71.88
58668;BME280;59852;43.086;25.634;2023-04-03T03:00:28;98283.91;;;7.41;72.28
58668;BME280;59852;43.086;25.634;2023-04-03T03:02:54;98286.66;;;7.12;74.58
58668;BME280;59852;43.086;25.634;2023-04-03T03:05:19;98278.00;;;7.52;74.22
58668;BME280;59852;43.086;25.634;2023-04-03T03:07:45;98273.41;;;7.55;72.04
58668;BME280;59852;43.086;25.634;2023-04-03T03:10:10;98283.84;;;7.55;71.62
58668;BME280;59852;43.086;25.634;2023-04-03T03:12:35;98285.53;;;7.69;71.26
58668;BME280;59852;43.086;25.634;2023-04-03T03:15:01;98283.44;;;7.61;71.11
58668;BME280;59852;43.086;25.634;2023-04-03T03:17:26;98288.13;;;7.69;71.11
58668;BME280;59852;43.086;25.634;2023-04-03T03:19:51;98288.13;;;7.69;71.20
58668;BME280;59852;43.086;25.634;2023-04-03T03:22:18;98295.13;;;7.68;71.78
58668;BME280;59852;43.086;25.634;2023-04-03T03:24:43;98290.09;;;7.65;71.59
58668;BME280;59852;43.086;25.634;2023-04-03T03:27:09;98280.63;;;7.64;70.84
58668;BME280;59852;43.086;25.634;2023-04-03T03:29:34;98285.63;;;7.67;70.89
58668;BME280;59852;43.086;25.634;2023-04-03T03:31:59;98279.28;;;7.59;71.29
58668;BME280;59852;43.086;25.634;2023-04-03T03:34:25;98284.16;;;7.63;70.86
58668;BME280;59852;43.086;25.634;2023-04-03T03:36:50;98280.72;;;7.50;71.54
58668;BME280;59852;43.086;25.634;2023-04-03T03:39:15;98286.25;;;7.58;71.21
58668;BME280;59852;43.086;25.634;2023-04-03T03:41:41;98284.66;;;7.56;71.18
58668;BME280;59852;43.086;25.634;2023-04-03T03:44:06;98280.50;;;7.53;70.97
58668;BME280;59852;43.086;25.634;2023-04-03T03:46:31;98276.75;;;7.44;71.42
58668;BME280;59852;43.086;25.634;2023-04-03T03:48:57;98278.50;;;7.44;71.92
58668;BME280;59852;43.086;25.634;2023-04-03T03:51:22;98276.69;;;7.59;70.86
58668;BME280;59852;43.086;25.634;2023-04-03T03:53:48;98274.69;;;7.62;70.90
58668;BME280;59852;43.086;25.634;2023-04-03T03:56:13;98268.09;;;7.31;72.08
58668;BME280;59852;43.086;25.634;2023-04-03T03:58:38;98269.41;;;7.24;73.47
58668;BME280;59852;43.086;25.634;2023-04-03T04:01:04;98266.09;;;7.35;73.66
58668;BME280;59852;43.086;25.634;2023-04-03T04:03:30;98261.41;;;7.27;73.77
58668;BME280;59852;43.086;25.634;2023-04-03T04:05:56;98268.41;;;7.00;73.98
58668;BME280;59852;43.086;25.634;2023-04-03T04:08:21;98270.81;;;7.03;73.97
58668;BME280;59852;43.086;25.634;2023-04-03T04:10:46;98278.75;;;7.14;74.56
58668;BME280;59852;43.086;25.634;2023-04-03T04:13:12;98273.78;;;7.24;73.44
58668;BME280;59852;43.086;25.634;2023-04-03T04:15:37;98276.31;;;6.98;73.80
58668;BME280;59852;43.086;25.634;2023-04-03T04:18:02;98276.78;;;6.90;74.70
58668;BME280;59852;43.086;25.634;2023-04-03T04:20:28;98277.06;;;6.86;75.21
58668;BME280;59852;43.086;25.634;2023-04-03T04:22:53;98275.72;;;6.80;75.46
58668;BME280;59852;43.086;25.634;2023-04-03T04:25:19;98281.41;;;7.00;75.01
58668;BME280;59852;43.086;25.634;2023-04-03T04:27:44;98267.53;;;7.26;74.20
58668;BME280;59852;43.086;25.634;2023-04-03T04:30:10;98270.31;;;7.50;73.18
58668;BME280;59852;43.086;25.634;2023-04-03T04:32:35;98275.97;;;7.82;72.19
58668;BME280;59852;43.086;25.634;2023-04-03T04:35:01;98279.09;;;7.87;72.23
58668;BME280;59852;43.086;25.634;2023-04-03T04:37:26;98274.69;;;7.50;72.88
58668;BME280;59852;43.086;25.634;2023-04-03T04:39:51;98278.22;;;7.48;73.79
58668;BME280;59852;43.086;25.634;2023-04-03T04:42:17;98275.19;;;7.42;74.92
58668;BME280;59852;43.086;25.634;2023-04-03T04:44:42;98282.59;;;7.86;72.87
58668;BME280;59852;43.086;25.634;2023-04-03T04:47:08;98279.22;;;7.46;71.88
58668;BME280;59852;43.086;25.634;2023-04-03T04:49:33;98289.09;;;7.28;73.63
58668;BME280;59852;43.086;25.634;2023-04-03T04:51:58;98304.72;;;7.28;73.28
58668;BME280;59852;43.086;25.634;2023-04-03T04:54:24;98308.72;;;7.19;73.50
58668;BME280;59852;43.086;25.634;2023-04-03T04:56:49;98297.88;;;7.53;72.97
58668;BME280;59852;43.086;25.634;2023-04-03T04:59:14;98303.94;;;7.53;72.73
58668;BME280;59852;43.086;25.634;2023-04-03T05:01:40;98307.69;;;7.74;72.02
58668;BME280;59852;43.086;25.634;2023-04-03T05:04:06;98313.28;;;7.16;73.53
58668;BME280;59852;43.086;25.634;2023-04-03T05:06:31;98318.56;;;7.41;72.76
58668;BME280;59852;43.086;25.634;2023-04-03T05:08:57;98317.81;;;7.79;71.79
58668;BME280;59852;43.086;25.634;2023-04-03T05:11:22;98322.09;;;7.93;70.91
58668;BME280;59852;43.086;25.634;2023-04-03T05:13:48;98328.25;;;8.04;70.98
58668;BME280;59852;43.086;25.634;2023-04-03T05:16:13;98336.88;;;7.92;71.73
58668;BME280;59852;43.086;25.634;2023-04-03T05:18:39;98345.44;;;7.15;73.84
58668;BME280;59852;43.086;25.634;2023-04-03T05:21:04;98350.84;;;6.98;74.94
58668;BME280;59852;43.086;25.634;2023-04-03T05:23:29;98344.47;;;7.70;72.33
58668;BME280;59852;43.086;25.634;2023-04-03T05:25:55;98344.75;;;8.43;71.42
58668;BME280;59852;43.086;25.634;2023-04-03T05:29:05;98346.91;;;8.62;68.89
58668;BME280;59852;43.086;25.634;2023-04-03T05:31:31;98348.91;;;8.58;68.56
58668;BME280;59852;43.086;25.634;2023-04-03T05:33:56;98349.91;;;8.05;68.95
58668;BME280;59852;43.086;25.634;2023-04-03T05:36:22;98350.25;;;8.26;69.10
58668;BME280;59852;43.086;25.634;2023-04-03T05:38:48;98342.03;;;8.57;68.73
58668;BME280;59852;43.086;25.634;2023-04-03T05:41:13;98346.38;;;8.70;67.02
58668;BME280;59852;43.086;25.634;2023-04-03T05:43:39;98339.13;;;9.23;68.50
58668;BME280;59852;43.086;25.634;2023-04-03T05:46:08;98351.25;;;8.87;68.49
58668;BME280;59852;43.086;25.634;2023-04-03T05:48:34;98348.56;;;9.36;67.46
58668;BME280;59852;43.086;25.634;2023-04-03T05:51:00;98353.41;;;9.06;67.76
58668;BME280;59852;43.086;25.634;2023-04-03T05:53:27;98349.19;;;8.79;68.44
58668;BME280;59852;43.086;25.634;2023-04-03T05:55:53;98346.88;;;8.75;67.48
58668;BME280;59852;43.086;25.634;2023-04-03T05:58:19;98350.97;;;9.03;67.64
58668;BME280;59852;43.086;25.634;2023-04-03T06:00:44;98353.94;;;9.22;68.81
58668;BME280;59852;43.086;25.634;2023-04-03T06:03:10;98356.19;;;9.15;67.71
58668;BME280;59852;43.086;25.634;2023-04-03T06:05:35;98355.53;;;9.25;67.59
58668;BME280;59852;43.086;25.634;2023-04-03T06:08:01;98357.28;;;9.48;66.76
58668;BME280;59852;43.086;25.634;2023-04-03T06:10:26;98347.22;;;9.31;67.28
58668;BME280;59852;43.086;25.634;2023-04-03T06:12:52;98346.06;;;9.11;67.21
58668;BME280;59852;43.086;25.634;2023-04-03T06:15:17;98343.16;;;9.03;67.87
58668;BME280;59852;43.086;25.634;2023-04-03T06:17:42;98332.41;;;9.07;67.58
58668;BME280;59852;43.086;25.634;2023-04-03T06:20:08;98340.88;;;8.98;67.67
58668;BME280;59852;43.086;25.634;2023-04-03T06:22:34;98351.69;;;9.17;68.39
58668;BME280;59852;43.086;25.634;2023-04-03T06:25:00;98343.63;;;8.97;67.92
58668;BME280;59852;43.086;25.634;2023-04-03T06:27:25;98346.16;;;8.73;68.04
58668;BME280;59852;43.086;25.634;2023-04-03T06:29:51;98354.88;;;8.97;67.00
58668;BME280;59852;43.086;25.634;2023-04-03T06:32:16;98361.16;;;9.18;67.56
58668;BME280;59852;43.086;25.634;2023-04-03T06:34:41;98363.94;;;9.28;67.91
58668;BME280;59852;43.086;25.634;2023-04-03T06:37:25;98360.41;;;9.29;65.83
58668;BME280;59852;43.086;25.634;2023-04-03T06:39:51;98370.63;;;9.56;64.79
58668;BME280;59852;43.086;25.634;2023-04-03T06:42:16;98368.53;;;9.72;64.29
58668;BME280;59852;43.086;25.634;2023-04-03T06:44:42;98362.44;;;9.85;63.99
58668;BME280;59852;43.086;25.634;2023-04-03T06:47:09;98365.41;;;10.02;64.32
58668;BME280;59852;43.086;25.634;2023-04-03T06:49:36;98375.84;;;9.91;63.96
58668;BME280;59852;43.086;25.634;2023-04-03T06:52:02;98373.16;;;10.04;63.42
58668;BME280;59852;43.086;25.634;2023-04-03T06:54:27;98368.78;;;10.16;63.13
58668;BME280;59852;43.086;25.634;2023-04-03T06:56:52;98370.38;;;10.29;62.94
58668;BME280;59852;43.086;25.634;2023-04-03T06:59:18;98366.09;;;10.28;63.68
58668;BME280;59852;43.086;25.634;2023-04-03T07:01:44;98365.66;;;10.34;63.82
58668;BME280;59852;43.086;25.634;2023-04-03T07:04:10;98370.53;;;10.50;62.66
58668;BME280;59852;43.086;25.634;2023-04-03T07:06:35;98368.16;;;10.58;62.19
58668;BME280;59852;43.086;25.634;2023-04-03T07:09:01;98374.34;;;10.57;62.20
58668;BME280;59852;43.086;25.634;2023-04-03T07:11:27;98372.22;;;10.62;61.41
58668;BME280;59852;43.086;25.634;2023-04-03T07:13:53;98385.16;;;10.64;63.81
58668;BME280;59852;43.086;25.634;2023-04-03T07:16:18;98381.47;;;10.55;62.88
58668;BME280;59852;43.086;25.634;2023-04-03T07:18:44;98382.19;;;10.57;63.23
58668;BME280;59852;43.086;25.634;2023-04-03T07:21:09;98391.59;;;10.82;63.15
58668;BME280;59852;43.086;25.634;2023-04-03T07:23:35;98387.06;;;10.73;62.03
58668;BME280;59852;43.086;25.634;2023-04-03T07:26:00;98382.56;;;10.64;60.43
58668;BME280;59852;43.086;25.634;2023-04-03T07:28:26;98384.91;;;11.01;60.60
58668;BME280;59852;43.086;25.634;2023-04-03T07:30:52;98379.75;;;11.10;60.73
58668;BME280;59852;43.086;25.634;2023-04-03T07:33:18;98376.22;;;11.11;61.18
58668;BME280;59852;43.086;25.634;2023-04-03T07:35:44;98385.09;;;11.20;60.33
58668;BME280;59852;43.086;25.634;2023-04-03T07:38:10;98381.25;;;11.46;59.50
58668;BME280;59852;43.086;25.634;2023-04-03T07:40:35;98391.31;;;11.62;60.08
58668;BME280;59852;43.086;25.634;2023-04-03T07:43:01;98381.16;;;11.69;60.42
58668;BME280;59852;43.086;25.634;2023-04-03T07:45:27;98383.47;;;11.62;60.32
58668;BME280;59852;43.086;25.634;2023-04-03T07:47:53;98380.31;;;11.68;60.89
58668;BME280;59852;43.086;25.634;2023-04-03T07:50:18;98370.16;;;11.86;60.53
58668;BME280;59852;43.086;25.634;2023-04-03T07:52:44;98377.34;;;12.05;60.68
58668;BME280;59852;43.086;25.634;2023-04-03T07:55:09;98381.25;;;12.11;60.30
58668;BME280;59852;43.086;25.634;2023-04-03T07:57:35;98385.78;;;12.29;59.98
58668;BME280;59852;43.086;25.634;2023-04-03T08:00:01;98390.69;;;12.44;59.46
58668;BME280;59852;43.086;25.634;2023-04-03T08:02:27;98387.38;;;12.42;59.31
58668;BME280;59852;43.086;25.634;2023-04-03T08:04:52;98378.00;;;12.70;59.05
58668;BME280;59852;43.086;25.634;2023-04-03T08:07:18;98371.25;;;12.46;58.24
58668;BME280;59852;43.086;25.634;2023-04-03T08:09:43;98370.91;;;12.60;59.03
58668;BME280;59852;43.086;25.634;2023-04-03T08:12:09;98371.13;;;12.78;57.65
58668;BME280;59852;43.086;25.634;2023-04-03T08:14:36;98368.47;;;13.09;57.90
58668;BME280;59852;43.086;25.634;2023-04-03T08:17:02;98362.38;;;13.08;55.79
58668;BME280;59852;43.086;25.634;2023-04-03T08:19:29;98363.13;;;12.80;56.72
58668;BME280;59852;43.086;25.634;2023-04-03T08:21:54;98372.16;;;13.06;55.72
58668;BME280;59852;43.086;25.634;2023-04-03T08:24:20;98364.94;;;13.19;55.69
58668;BME280;59852;43.086;25.634;2023-04-03T08:26:45;98360.56;;;13.49;55.19
58668;BME280;59852;43.086;25.634;2023-04-03T08:29:10;98360.53;;;13.30;55.76
58668;BME280;59852;43.086;25.634;2023-04-03T08:31:36;98343.38;;;13.35;56.65
58668;BME280;59852;43.086;25.634;2023-04-03T08:34:01;98346.19;;;13.03;56.82
58668;BME280;59852;43.086;25.634;2023-04-03T08:36:28;98332.47;;;12.90;56.57
58668;BME280;59852;43.086;25.634;2023-04-03T08:38:54;98334.81;;;12.83;56.55
58668;BME280;59852;43.086;25.634;2023-04-03T08:41:25;98324.56;;;12.71;56.42
58668;BME280;59852;43.086;25.634;2023-04-03T08:46:32;98330.81;;;12.79;56.19
58668;BME280;59852;43.086;25.634;2023-04-03T08:49:01;98322.13;;;12.88;56.68
58668;BME280;59852;43.086;25.634;2023-04-03T08:51:26;98312.91;;;13.13;56.26
58668;BME280;59852;43.086;25.634;2023-04-03T08:54:00;98318.22;;;13.23;56.11
58668;BME280;59852;43.086;25.634;2023-04-03T08:56:27;98335.22;;;13.19;56.08
58668;BME280;59852;43.086;25.634;2023-04-03T08:58:55;98326.16;;;13.02;55.73
58668;BME280;59852;43.086;25.634;2023-04-03T09:03:46;98320.44;;;13.28;56.05
58668;BME280;59852;43.086;25.634;2023-04-03T09:08:43;98322.63;;;13.23;55.26
58668;BME280;59852;43.086;25.634;2023-04-03T09:16:38;98315.06;;;13.68;53.46
58668;BME280;59852;43.086;25.634;2023-04-03T09:19:09;98314.78;;;13.61;54.02
58668;BME280;59852;43.086;25.634;2023-04-03T09:21:38;98325.44;;;13.69;53.95
58668;BME280;59852;43.086;25.634;2023-04-03T09:24:07;98317.38;;;13.81;53.28
58668;BME280;59852;43.086;25.634;2023-04-03T09:26:36;98310.34;;;13.81;53.45
58668;BME280;59852;43.086;25.634;2023-04-03T09:29:07;98308.53;;;13.91;53.43
58668;BME280;59852;43.086;25.634;2023-04-03T09:31:37;98301.19;;;13.85;53.01
58668;BME280;59852;43.086;25.634;2023-04-03T09:34:05;98299.38;;;13.95;54.05
58668;BME280;59852;43.086;25.634;2023-04-03T09:39:04;98302.09;;;14.13;53.90
58668;BME280;59852;43.086;25.634;2023-04-03T09:41:30;98296.31;;;14.00;53.98
58668;BME280;59852;43.086;25.634;2023-04-03T09:43:55;98297.06;;;13.73;54.39
58668;BME280;59852;43.086;25.634;2023-04-03T09:48:57;98298.28;;;14.35;53.26
58668;BME280;59852;43.086;25.634;2023-04-03T09:51:26;98289.28;;;14.47;52.77
58668;BME280;59852;43.086;25.634;2023-04-03T09:53:53;98288.47;;;14.47;52.45
58668;BME280;59852;43.086;25.634;2023-04-03T09:58:51;98287.38;;;14.30;52.92
58668;BME280;59852;43.086;25.634;2023-04-03T10:01:28;98289.53;;;14.44;53.34
58668;BME280;59852;43.086;25.634;2023-04-03T10:04:04;98290.19;;;14.19;52.95
58668;BME280;59852;43.086;25.634;2023-04-03T10:06:31;98291.69;;;14.21;52.08
58668;BME280;59852;43.086;25.634;2023-04-03T10:09:00;98295.66;;;14.35;53.15
58668;BME280;59852;43.086;25.634;2023-04-03T10:11:26;98297.72;;;14.41;53.07
58668;BME280;59852;43.086;25.634;2023-04-03T10:16:18;98287.34;;;14.49;52.20
58668;BME280;59852;43.086;25.634;2023-04-03T10:21:32;98271.25;;;14.43;53.25
58668;BME280;59852;43.086;25.634;2023-04-03T10:24:14;98274.34;;;14.48;52.43
58668;BME280;59852;43.086;25.634;2023-04-03T10:31:57;98274.28;;;14.57;51.88
58668;BME280;59852;43.086;25.634;2023-04-03T10:34:32;98272.59;;;14.66;51.93
58668;BME280;59852;43.086;25.634;2023-04-03T10:39:28;98262.69;;;14.50;50.84
58668;BME280;59852;43.086;25.634;2023-04-03T10:47:18;98265.41;;;14.58;50.71
58668;BME280;59852;43.086;25.634;2023-04-03T10:52:17;98258.38;;;14.12;51.00
58668;BME280;59852;43.086;25.634;2023-04-03T10:54:46;98253.81;;;14.04;51.32
58668;BME280;59852;43.086;25.634;2023-04-03T10:57:14;98245.47;;;14.19;51.17
58668;BME280;59852;43.086;25.634;2023-04-03T11:02:25;98240.47;;;14.16;51.06
58668;BME280;59852;43.086;25.634;2023-04-03T11:04:52;98237.84;;;14.16;50.02
58668;BME280;59852;43.086;25.634;2023-04-03T11:07:27;98229.84;;;14.17;50.84
58668;BME280;59852;43.086;25.634;2023-04-03T11:09:57;98225.59;;;14.06;51.47
58668;BME280;59852;43.086;25.634;2023-04-03T11:12:33;98217.66;;;14.16;52.03
58668;BME280;59852;43.086;25.634;2023-04-03T11:15:02;98206.56;;;14.22;52.27
58668;BME280;59852;43.086;25.634;2023-04-03T11:17:35;98216.28;;;14.12;52.61
58668;BME280;59852;43.086;25.634;2023-04-03T11:22:32;98211.03;;;14.12;53.02
58668;BME280;59852;43.086;25.634;2023-04-03T11:27:27;98201.34;;;14.13;53.35
58668;BME280;59852;43.086;25.634;2023-04-03T11:29:57;98193.66;;;14.29;52.20
58668;BME280;59852;43.086;25.634;2023-04-03T11:32:29;98191.63;;;14.13;52.92
58668;BME280;59852;43.086;25.634;2023-04-03T11:34:59;98197.31;;;14.18;53.45
58668;BME280;59852;43.086;25.634;2023-04-03T11:39:56;98210.75;;;14.43;52.92
58668;BME280;59852;43.086;25.634;2023-04-03T11:42:29;98209.19;;;14.22;52.15
58668;BME280;59852;43.086;25.634;2023-04-03T11:47:54;98209.06;;;14.14;50.74
58668;BME280;59852;43.086;25.634;2023-04-03T12:11:24;98201.69;;;13.90;50.41
58668;BME280;59852;43.086;25.634;2023-04-03T12:16:21;98200.75;;;13.82;50.55
58668;BME280;59852;43.086;25.634;2023-04-03T12:21:19;98197.16;;;13.83;51.90
58668;BME280;59852;43.086;25.634;2023-04-03T12:26:32;98197.06;;;14.12;52.13
58668;BME280;59852;43.086;25.634;2023-04-03T12:29:01;98195.25;;;14.12;52.26
58668;BME280;59852;43.086;25.634;2023-04-03T12:31:32;98191.50;;;14.15;53.08
58668;BME280;59852;43.086;25.634;2023-04-03T12:37:48;98188.34;;;14.11;52.83
58668;BME280;59852;43.086;25.634;2023-04-03T12:42:42;98188.03;;;14.14;52.38
58668;BME280;59852;43.086;25.634;2023-04-03T12:45:19;98191.25;;;14.08;53.34
58668;BME280;59852;43.086;25.634;2023-04-03T12:47:45;98197.63;;;14.05;51.72
58668;BME280;59852;43.086;25.634;2023-04-03T12:50:16;98186.97;;;14.07;52.81
58668;BME280;59852;43.086;25.634;2023-04-03T12:52:44;98187.22;;;14.14;50.04
58668;BME280;59852;43.086;25.634;2023-04-03T12:55:17;98184.44;;;14.15;49.17
58668;BME280;59852;43.086;25.634;2023-04-03T12:57:43;98189.59;;;14.07;50.13
58668;BME280;59852;43.086;25.634;2023-04-03T13:00:19;98179.91;;;14.07;51.25
58668;BME280;59852;43.086;25.634;2023-04-03T13:02:45;98180.47;;;14.01;50.97
58668;BME280;59852;43.086;25.634;2023-04-03T13:05:14;98186.88;;;13.99;51.21
58668;BME280;59852;43.086;25.634;2023-04-03T13:07:40;98180.09;;;13.96;51.90
58668;BME280;59852;43.086;25.634;2023-04-03T13:12:44;98181.06;;;13.95;51.81
58668;BME280;59852;43.086;25.634;2023-04-03T13:15:16;98171.38;;;13.96;52.01
58668;BME280;59852;43.086;25.634;2023-04-03T13:17:42;98182.03;;;13.94;51.82
58668;BME280;59852;43.086;25.634;2023-04-03T13:20:13;98173.16;;;13.95;52.68
58668;BME280;59852;43.086;25.634;2023-04-03T13:22:41;98176.91;;;13.93;52.25
58668;BME280;59852;43.086;25.634;2023-04-03T13:25:09;98170.16;;;13.90;53.63
58668;BME280;59852;43.086;25.634;2023-04-03T13:27:36;98167.75;;;13.69;53.57
58668;BME280;59852;43.086;25.634;2023-04-03T13:30:04;98167.28;;;13.74;54.48
58668;BME280;59852;43.086;25.634;2023-04-03T13:32:30;98157.34;;;13.77;55.57
58668;BME280;59852;43.086;25.634;2023-04-03T13:34:56;98162.72;;;13.76;55.61
58668;BME280;59852;43.086;25.634;2023-04-03T13:37:29;98153.31;;;13.73;57.81
58668;BME280;59852;43.086;25.634;2023-04-03T13:42:59;98158.47;;;13.65;59.94
58668;BME280;59852;43.086;25.634;2023-04-03T13:45:27;98158.63;;;13.54;59.71
58668;BME280;59852;43.086;25.634;2023-04-03T13:48:39;98154.84;;;13.19;61.73
58668;BME280;59852;43.086;25.634;2023-04-03T13:50:56;98152.47;;;13.26;62.73
58668;BME280;59852;43.086;25.634;2023-04-03T13:53:22;98141.94;;;13.07;63.26
58668;BME280;59852;43.086;25.634;2023-04-03T13:58:28;98136.59;;;13.28;63.71
58668;BME280;59852;43.086;25.634;2023-04-03T14:00:55;98134.50;;;12.92;63.17
58668;BME280;59852;43.086;25.634;2023-04-03T14:05:46;98137.69;;;13.06;64.41
58668;BME280;59852;43.086;25.634;2023-04-03T14:08:11;98142.09;;;13.05;64.98
58668;BME280;59852;43.086;25.634;2023-04-03T14:10:37;98147.78;;;13.01;64.35
58668;BME280;59852;43.086;25.634;2023-04-03T14:13:02;98138.94;;;12.92;64.48
58668;BME280;59852;43.086;25.634;2023-04-03T14:15:28;98137.28;;;13.01;65.53
58668;BME280;59852;43.086;25.634;2023-04-03T14:17:55;98141.56;;;13.02;65.24
58668;BME280;59852;43.086;25.634;2023-04-03T14:20:22;98138.09;;;12.91;67.46
58668;BME280;59852;43.086;25.634;2023-04-03T14:22:48;98142.09;;;12.96;66.82
58668;BME280;59852;43.086;25.634;2023-04-03T14:25:15;98144.47;;;12.89;65.28
58668;BME280;59852;43.086;25.634;2023-04-03T14:27:42;98146.81;;;12.92;65.31
58668;BME280;59852;43.086;25.634;2023-04-03T14:30:24;98140.59;;;12.83;65.86
58668;BME280;59852;43.086;25.634;2023-04-03T14:32:50;98144.19;;;12.92;65.11
58668;BME280;59852;43.086;25.634;2023-04-03T14:35:16;98156.19;;;12.66;66.18
58668;BME280;59852;43.086;25.634;2023-04-03T14:37:41;98148.59;;;12.82;65.13